Search :
Type the text to search here and press Enter.
Separate search terms by a space; they will all be searched individually in all fields of the database.

Click on Search : to go to the advanced search page.
Mkt: Check this box if you want
to search in classified
instead of the database.

N Scale Model Trains Database

Engines, Rolling Stock, Structures, and Accessories

The Annual ARS Show in West Springfield MA draws many N Scale Enthusiasts
JavaScript is disabled in your browser. This page will not work properly.

Body Style:
Brand:
Production Type:
Manufacturer:
Road or Company Name:
Series Name:
Item Category:
Model Type:
Total items in database: 76875. Total items on page 118

Inventory Check: for user: 0

First Image Brand Stock Number Road or Company Name Reporting Marks Road or Reporting Number Prototype Original Retail Price Market Release Date ID
Atlas 29733 Preferred Pool AVAZ 254333 Trailer, 45 Foot, Pines 2008-04-01 99394
Atlas 29734 Preferred Pool AVAZ 254347 Trailer, 45 Foot, Pines H:$13.00 2008-04-01 99395
Atlas 31400A Wyandotte Chemicals UTLX 78580 Tank Car, Single Dome, Shorty Unknown E:$8.63 2008-04-01 26782
Atlas 31401A Wyandotte Chemicals UTLX 78590 Tank Car, Single Dome, Shorty Unknown 2008-04-01 26783
Atlas 31402A Detrex GATX 9533 Tank Car, Single Dome, Shorty Unknown H:$9.99 2008-04-01 26797
Atlas 31403A Detrex GATX 9537 Tank Car, Single Dome, Shorty Unknown 2008-04-01 26694
Atlas 31404A Eat Honey GATX 86581 Tank Car, Single Dome, Shorty Unknown 2008-04-01 26717
Atlas 31405A Eat Honey GATX 86585 Tank Car, Single Dome, Shorty Unknown 2008-04-01 26718
Atlas 31406A GATX Corporation GATX 23826 Tank Car, Single Dome, Shorty Unknown 2008-04-01 26798
Atlas 31407A GATX Corporation GATX 23832 Tank Car, Single Dome, Shorty Unknown 2008-04-01 26729
Atlas 31408A Pure Sweet Molasses HOCX 144 Tank Car, Single Dome, Shorty Unknown 2008-04-01 26762
Atlas 31409A Pure Sweet Molasses HOCX 147 Tank Car, Single Dome, Shorty Unknown 2008-04-01 26764
Atlas 31410A Hooker Chemical GATX 24934 Tank Car, Single Dome, Shorty Unknown 2008-04-01 26747
Atlas 31411A Hooker Chemical GATX 24937 Tank Car, Single Dome, Shorty Unknown H:$4.99 2008-04-01 26748
Atlas 39962A Canadian National CN 343003 Open Hopper, Ore Car, 70 Ton $16.95 2008-04-01 110202
Atlas 39963A Canadian National CN 343041 Open Hopper, Ore Car, 70 Ton $16.95 2008-04-01 110203
Atlas 39964A Canadian Pacific CP 377210 Open Hopper, Ore Car, 70 Ton $16.95 2008-04-01 110205
Atlas 39965A Canadian Pacific CP 377222 Open Hopper, Ore Car, 70 Ton $16.95 2008-04-01 110206
Atlas 39984A Canadian National CN 114132 Open Hopper, Ore Car, 70 Ton $16.95 H:$9.99 2008-04-01 110192
Atlas 39985A Canadian National CN 114163 Open Hopper, Ore Car, 70 Ton $16.95 2008-04-01 110193
Atlas 39986A Erie Mining 2301 Open Hopper, Ore Car, 70 Ton $16.95 2008-04-01 110194
Atlas 39987A Erie Mining 2319 Open Hopper, Ore Car, 70 Ton $16.95 2008-04-01 110195
Atlas 39988A Great Northern GN 95310 Open Hopper, Ore Car, 70 Ton $16.95 2008-04-01 110196
Atlas 39989A Great Northern GN 95331 Open Hopper, Ore Car, 70 Ton $16.95 2008-04-01 110197
Atlas 39990A Pere Marquette CF1512 Open Hopper, Ore Car, 70 Ton $16.95 2008-04-01 110198
Atlas 39991A Pere Marquette CF1523 Open Hopper, Ore Car, 70 Ton $16.95 2008-04-01 110199
Atlas 39992A Southern Pacific SP 467501 Open Hopper, Ore Car, 70 Ton $16.95 2008-04-01 110200
Atlas 39993A Southern Pacific SP 467520 Open Hopper, Ore Car, 70 Ton $16.95 2008-04-01 110201
Atlas 39994A Union Pacific UP 26422 Open Hopper, Ore Car, 70 Ton $16.95 2008-04-01 110207
Atlas 39995A Union Pacific UP 26469 Open Hopper, Ore Car, 70 Ton $16.95 2008-04-01 110208
Atlas 42062 Burlington Northern BN 4056 Locomotive, Diesel, Alco RS-3 $104.95 H:$64.97 2008-04-01 108783
Atlas 42063 Burlington Northern BN 4064 Locomotive, Diesel, Alco RS-3 $104.95 H:$69.95 2008-04-01 108513
Atlas 42064 Green Bay & Western GBW 305 Locomotive, Diesel, Alco RS-3 $104.95 H:$82.62 2008-04-01 108514
Atlas 42065 Green Bay & Western GBW 307 Locomotive, Diesel, Alco RS-3 $104.95 2008-04-01 108515
Atlas 42066 Jersey Central CNJ 1540 Locomotive, Diesel, Alco RS-3 $104.95 H:$48.00 2008-04-01 108516
Atlas 42067 Jersey Central CNJ 1546 Locomotive, Diesel, Alco RS-3 $104.95 H:$81.98 2008-04-01 108517
Atlas 42068 Lehigh & Hudson River L&HR 4 Locomotive, Diesel, Alco RS-3 $104.95 H:$73.50 2008-04-01 108518
Atlas 42069 Lehigh & Hudson River L&HR 11 Locomotive, Diesel, Alco RS-3 $104.95 H:$84.99 2008-04-01 108519
Atlas 42070 Long Island Rail Road LI 1551 Locomotive, Diesel, Alco RS-3 $104.95 E:$99.95 H:$64.87 2008-04-01 108520
Atlas 42071 Long Island Rail Road LI 1555 Locomotive, Diesel, Alco RS-3 $104.95 H:$68.95 2008-04-01 108521
Atlas 42072 Ontario Northland ONT 1306 Locomotive, Diesel, Alco RS-3 $104.95 H:$113.57 2008-04-01 108522
Atlas 42073 Ontario Northland ONT 1308 Locomotive, Diesel, Alco RS-3 $104.95 2008-04-01 108523
Atlas 42074 Rock Island RI 455 Locomotive, Diesel, Alco RS-3 $104.95 H:$65.00 2008-04-01 108524
Atlas 42075 Rock Island RI 458 Locomotive, Diesel, Alco RS-3 $104.95 E:$99.95 H:$54.76 2008-04-01 108525
Atlas 42076 Rutland RUT 205 Locomotive, Diesel, Alco RS-3 104.95 H:$52.45 2008-04-01 105175
Atlas 42077 Rutland RUT 208 Locomotive, Diesel, Alco RS-3 $104.95 H:$49.06 2008-04-01 105176
Atlas 42078 Spokane Portland & Seattle SP&S 66 Locomotive, Diesel, Alco RS-3 $104.95 H:$8.28 2008-04-01 108528
Atlas 42079 Spokane Portland & Seattle SP&S 79 Locomotive, Diesel, Alco RS-3 $104.95 2008-04-01 108529
Atlas 42080 Boston & Maine B&M 1508 Locomotive, Diesel, Alco RS-3 $104.95 2008-04-01 108530
Atlas 45958 Penn Central PC 2706 Locomotive, Diesel, GE U23B $109.95 2008-04-01 173031
Atlas 45959 Penn Central PC 2723 Locomotive, Diesel, GE U23B $104.95 2008-04-01 173034
Atlas 45960 Penn Central PC 2739 Locomotive, Diesel, GE U23B $104.95 2008-04-01 173035
Atlas 45961 Reading Blue Mountain & Northern 2397 Locomotive, Diesel, GE U23B $109.95 2008-04-01 159757
Atlas 45962 Reading Blue Mountain & Northern 2399 Locomotive, Diesel, GE U23B $109.95 2008-04-01 173025
Atlas 47932 Penn Central PC 2706 Locomotive, Diesel, GE U23B $144.95 2008-04-01 173032
Atlas 47933 Penn Central PC 2723 Locomotive, Diesel, GE U23B $144.95 2008-04-01 173033
Atlas 47934 Reading Blue Mountain & Northern 2397 Locomotive, Diesel, GE U23B $144.95 2008-04-01 173026
Atlas 47935 Reading Blue Mountain & Northern 2399 Locomotive, Diesel, GE U23B $144.95 2008-04-01 173027
Atlas 50 000 068 Undecorated Covered Hopper, 4-Bay, ACF Centerflow 2008-04-01 100236
Atlas 50 000 071 Archer Daniels Midland ADMX 75078 Covered Hopper, 4-Bay, ACF Centerflow H:$14.68 2008-04-01 100235
Atlas 50 000 072 Archer Daniels Midland ADMX 75126 Covered Hopper, 4-Bay, ACF Centerflow 2008-04-01 100234
Atlas 50 000 073 Archer Daniels Midland ADMX 80117 Covered Hopper, 4-Bay, ACF Centerflow 2008-04-01 100233
Atlas 50 000 074 Archer Daniels Midland ADMX 80165 Covered Hopper, 4-Bay, ACF Centerflow 2008-04-01 100232
Atlas 50 000 075 The Andersons AEX 8736 Covered Hopper, 4-Bay, ACF Centerflow 2008-04-01 100231
Atlas 50 000 076 The Andersons AEX 8737 Covered Hopper, 4-Bay, ACF Centerflow 2008-04-01 100230
Atlas 50 000 077 Chicago Freight Car Leasing CRCX 1060 Covered Hopper, 4-Bay, ACF Centerflow 2008-04-01 100229
Atlas 50 000 078 Chicago Freight Car Leasing CRCX 1064 Covered Hopper, 4-Bay, ACF Centerflow 2008-04-01 100228
Atlas 50 000 079 United Bio Energy UBEX 52860 Covered Hopper, 4-Bay, ACF Centerflow 2008-04-01 100227
Atlas 50 000 080 United Bio Energy UBEX 52875 Covered Hopper, 4-Bay, ACF Centerflow $19.95 H:$12.99 2008-04-01 93121
Bowser 37610 Penn Gas Coal PGCC 37610 Open Hopper, 2-Bay, GLa 2008-04-01 34685
Classic Metal Works 50282 Union Pacific 1954 Ford F-350 Hi-Rail Truck, Ford F-Series 2008-04-01 147195
Classic Metal Works 50283 Pennsylvania 1954 Ford F-350 Hi-Rail Truck, Ford F-Series 2008-04-01 147197
Classic Metal Works 50284 New York Central 1954 Ford F-350 Hi-Rail Truck, Ford F-Series 2008-04-01 147196
Classic Metal Works 50285 Santa Fe 1954 Ford F-350 Hi-Rail Truck, Ford F-Series 2008-04-01 147198
Classic Metal Works 50286 Painted/Unlettered 1954 Ford F-350 Hi-Rail Truck, Ford F-Series 2008-04-01 147582
Classic Metal Works 50287 Painted/Unlettered 1954 Ford F-350 Hi-Rail Truck, Ford F-Series 2008-04-01 147623
Classic Metal Works 50288 Painted/Unlettered 1954 Ford F-350 Hi-Rail Truck, Ford F-Series 2008-04-01 147583
Classic Metal Works 50289 Bell System Bell Telephone 1954 Ford F-350 Utility Truck, Ford F-Series 2008-04-01 149158
Classic Metal Works 50290 Light & Power Company Light & Power Company 1954 Ford F-350 Utility Truck, Ford F-Series 2008-04-01 149758
Classic Metal Works 50291 Western Union Western Union 1954 Ford F-350 Utility Truck, Ford F-Series 2008-04-01 149141
Deluxe Innovations 10511 Northern Pacific NP 119779 Gondola, Woodchip 2008-04-01 150407
Deluxe Innovations 10513 Northern Pacific NP 3 numbers Gondola, Woodchip 2008-04-01 150408
Deluxe Innovations D204 Painted/Unlettered Tony's Pizzeria Shop $19.95 2008-04-01 147043
Fox Valley 8101-1 1st Release Apalachicola Northern AN 5603 Boxcar, 50 Foot, PS 5344 $15.95 H:$5.50 2008-04-01 128352
Fox Valley 8101-2 1st Release Apalachicola Northern AN 5582 Boxcar, 50 Foot, PS 5344 $15.95 2008-04-01 177534
Fox Valley 8101-3 1st Release Apalachicola Northern AN 5614 Boxcar, 50 Foot, PS 5344 $15.95 H:$14.95 2008-04-01 128354
Fox Valley 8101-4 1st Release Apalachicola Northern AN 5597 Boxcar, 50 Foot, PS 5344 $15.95 2008-04-01 177535
InterMountain 65115-35 Canadian Pacific CP 388781 Covered Hopper, 4-Bay, Cylindrical $21.95 2008-04-01 163499
InterMountain 65121-27 Saskatchewan Grain Car SKNX 397281 Covered Hopper, 4-Bay, Cylindrical $21.95 2008-04-01 163500
InterMountain 65122-30 Saskatchewan Grain Car SKPX 625527 Covered Hopper, 4-Bay, Cylindrical $21.95 2008-04-01 163501
InterMountain 65125-12 Canadian National CNWX 108382 Covered Hopper, 4-Bay, Cylindrical $21.95 H:$12.50 2008-04-01 163502
Kato USA 106-1054 Union Pacific UP (Unnumbered) Baggage, Coach, Diner, Dome Union Pacific Smoothside Passenger Car 4-Car Set A H:$56.50 2008-04-01 102130
Kato USA 106-1054-A Union Pacific UP Passenger Car, Lightweight, ACF 2008-04-01 102125
Kato USA 106-1054-B Union Pacific UP Passenger Car, Lightweight, Pullman, Coach, 44-Seat 2008-04-01 102127
Kato USA 106-1054-C Union Pacific UP Passenger Car, Lightweight, ACF E:$2.00 2008-04-01 102129
Kato USA 106-1054-D Union Pacific UP None Passenger Car, Pullman, Dome Coach 2008-04-01 102126
Kato USA 106-1055 Union Pacific UP (Unnumbered) RPO, Sleeper, Dome, Observation Union Pacific Smoothside Passenger Car 4-Car Set B H:$74.83 2008-04-01 102131
Kato USA 106-1055-A Union Pacific UP Passenger Car, Lightweight, ACF 2008-04-01 102132
Kato USA 106-1055-B Union Pacific UP Passenger Car, Lightweight, Pullman, Sleeper 6-6-4 2008-04-01 102133
Kato USA 106-1055-C Union Pacific UP Passenger Car, Pullman, Dome Coach 2008-04-01 102134
Kato USA 106-1055-D Union Pacific UP Passenger Car, Pullman, Observation 2008-04-01 102135
Micro-Trains 031 00 071 Chesapeake & Ohio C&O 21290 Boxcar, 50 Foot, PS-1 E:$10.00 H:$15.56 C:$18.00 2008-04-01 21379
Micro-Trains 031 00 250 Northern Pacific NP 1265 Boxcar, 50 Foot, PS-1 E:$20.00 H:$11.42 2008-04-01 21415
Micro-Trains 032 00 120 Seaboard Coast Line SCL 635336 Boxcar, 50 Foot, Steel, Plug Door E:$18.00 H:$13.49 2008-04-01 21473
Micro-Trains 066 00 011 Shell Oil SCMX 651 Tank Car, Triple Dome, 40 Foot $22.70 E:$30.00 H:$13.94 C:$30.00 2008-04-01 23254
Micro-Trains 066 00 012 Shell Oil SCMX 652 Tank Car, Triple Dome, 40 Foot $22.70 E:$30.00 H:$17.71 C:$30.00 2008-04-01 23255
Micro-Trains 077 00 161 Canada NU 1999 Boxcar, 50 Foot, PS-1 $18.25 E:$20.00 H:$10.99 C:$20.00 2008-04-01 23616
Micro-Trains 083 00 031 Western Pacific WP 9248 Gondola, 40 Foot, Steel, Drop Bottom E:$22.00 H:$14.70 2008-04-01 23661
Micro-Trains 083 00 032 Western Pacific WP 9264 Gondola, 40 Foot, Steel, Drop Bottom E:$22.00 H:$13.82 2008-04-01 23662
Micro-Trains 091 51 010 Norfolk & Western N&W 39525 Open Hopper, 2-Bay, Rib Side 2008-04-01 23737
Micro-Trains 091 52 010 Norfolk & Western N&W 39540 Open Hopper, 2-Bay, Rib Side 2008-04-01 23739
Micro-Trains 091 53 010 Norfolk & Western N&W 39632 Open Hopper, 2-Bay, Rib Side 2008-04-01 23741
Micro-Trains 091 54 010 Norfolk & Western N&W 39663 Open Hopper, 2-Bay, Rib Side 2008-04-01 23743
Micro-Trains 099 00 050 Milwaukee Road MILW 98762 Covered Hopper, 3-Bay, Evans 4780 E:$14.99 H:$15.11 2008-04-01 23916
Micro-Trains 800 00 080 Colorado & Northwestern 1024 Boxcar, 30 Foot, Narrow Gauge $17.25 E:$28.00 2008-04-01 175764
Micro-Trains 993 00 012 Norfolk & Western N&W 4-Pack Boxed Set, Runner Pack $54.95 H:$75.00 2008-04-01 89592
Micro-Trains NSC MTL 08-01 Louisville & Nashville L&N 1891 Boxcar, 50 Foot, PS-1 E:$24.95 H:$11.91 2008-04-01 109991
Wiking 096640 Agricultural Vehicles John Deere with twin-tires Vehicle, Tractor, John Deere 8530 9.00€ 2008-04-01 168889